Terminal Aerodrome Forecast
Issued by NWS Sioux Falls, SD

Home | Current Version | Previous Version | Text Only | Print | Product List | Glossary On
Versions: 1 2 3 4 5 6 7 8 9 10 11 12 13 14 15 16 17 18 19 20 21 22 23 24 25 26 27 28 29 30 31 32 33 34 35
000
FTUS43 KFSD 271104 AAB
TAFSUX
TAF AMD
KSUX 271104Z 2711/2806 11005KT 6SM TSRA SCT020 OVC050CB
      TEMPO 2711/2712 VRB15KT 3SM TSRA BR BKN020 OVC035CB
     FM271300 11009KT P6SM SCT008 OVC200
     FM271500 14011KT P6SM SCT025 SCT060
     FM271800 15014G21KT P6SM SCT050
     FM280100 15012KT P6SM BKN120=

USA.gov is the U.S. government's official web portal to all federal, state and local government web resources and services.